createdAt,value
2022-08-17T00:06:32.200Z,58.31
2022-08-17T00:36:36.395Z,58.30
2022-08-17T01:06:41.478Z,57.90
2022-08-17T01:36:49.163Z,57.83
2022-08-17T02:06:54.595Z,57.97
2022-08-17T02:36:58.866Z,57.94
2022-08-17T03:07:03.230Z,58.24
2022-08-17T03:37:07.284Z,58.46
2022-08-17T04:07:11.557Z,58.73
2022-08-17T04:37:15.596Z,59.97
2022-08-17T05:07:23.455Z,60.26
2022-08-17T05:37:28.917Z,59.92
2022-08-17T06:07:37.787Z,59.30
2022-08-17T06:38:03.948Z,57.42
2022-08-17T07:08:11.817Z,57.39
2022-08-17T07:38:25.045Z,57.44
2022-08-17T08:08:33.551Z,58.37
2022-08-17T08:38:45.038Z,54.60
2022-08-17T09:08:59.132Z,53.20
2022-08-17T09:39:07.683Z,55.00
2022-08-17T10:09:18.728Z,52.36
2022-08-17T10:39:31.587Z,53.95
2022-08-17T11:09:45.171Z,53.25
2022-08-17T11:40:05.349Z,38.43
2022-08-17T12:10:12.225Z,32.76
2022-08-17T12:40:22.533Z,33.30
2022-08-17T13:10:33.004Z,34.75
2022-08-17T13:40:44.824Z,40.73
2022-08-17T14:10:56.958Z,37.44
2022-08-17T14:41:01.406Z,34.50
2022-08-17T15:11:06.240Z,39.42
2022-08-17T15:41:19.294Z,35.16
2022-08-17T16:11:23.730Z,34.82
2022-08-17T16:41:46.163Z,37.15
2022-08-17T17:11:53.913Z,40.79
2022-08-17T17:42:00.119Z,43.46
2022-08-17T18:12:11.178Z,48.09
2022-08-17T18:42:26.942Z,51.17
2022-08-17T19:12:36.162Z,54.31
2022-08-17T19:42:49.615Z,55.65
2022-08-17T20:12:54.295Z,56.59
2022-08-17T20:42:59.179Z,57.61
2022-08-17T21:13:21.772Z,59.84
2022-08-17T21:43:29.268Z,62.55
2022-08-17T22:13:33.765Z,62.98
2022-08-17T22:43:39.282Z,62.76
2022-08-17T23:13:48.316Z,63.51
2022-08-17T23:43:53.604Z,64.95
